sensor_id;sensor_type;location;lat;lon;timestamp;P1;durP1;ratioP1;P2;durP2;ratioP2
7383;SDS011;3733;47.994;8.820;2023-06-22T00:00:52;15.30;;;7.50;;
7383;SDS011;3733;47.994;8.820;2023-06-22T00:03:19;18.90;;;8.03;;
7383;SDS011;3733;47.994;8.820;2023-06-22T00:05:45;28.47;;;7.10;;
7383;SDS011;3733;47.994;8.820;2023-06-22T00:08:12;10.17;;;6.30;;
7383;SDS011;3733;47.994;8.820;2023-06-22T00:10:37;18.50;;;6.70;;
7383;SDS011;3733;47.994;8.820;2023-06-22T00:13:03;16.53;;;6.60;;
7383;SDS011;3733;47.994;8.820;2023-06-22T00:15:30;11.20;;;5.70;;
7383;SDS011;3733;47.994;8.820;2023-06-22T00:17:55;14.33;;;5.90;;
7383;SDS011;3733;47.994;8.820;2023-06-22T00:20:22;17.70;;;5.90;;
7383;SDS011;3733;47.994;8.820;2023-06-22T00:22:48;15.77;;;7.17;;
7383;SDS011;3733;47.994;8.820;2023-06-22T00:25:13;12.47;;;5.73;;
7383;SDS011;3733;47.994;8.820;2023-06-22T00:27:39;12.80;;;6.30;;
7383;SDS011;3733;47.994;8.820;2023-06-22T00:30:05;19.00;;;6.50;;
7383;SDS011;3733;47.994;8.820;2023-06-22T00:32:31;15.03;;;6.20;;
7383;SDS011;3733;47.994;8.820;2023-06-22T00:34:57;12.90;;;6.57;;
7383;SDS011;3733;47.994;8.820;2023-06-22T00:37:22;15.87;;;6.23;;
7383;SDS011;3733;47.994;8.820;2023-06-22T00:39:50;10.27;;;6.37;;
7383;SDS011;3733;47.994;8.820;2023-06-22T00:42:16;9.60;;;5.67;;
7383;SDS011;3733;47.994;8.820;2023-06-22T00:44:42;13.37;;;5.97;;
7383;SDS011;3733;47.994;8.820;2023-06-22T00:47:10;17.60;;;7.20;;
7383;SDS011;3733;47.994;8.820;2023-06-22T00:49:38;12.10;;;6.30;;
7383;SDS011;3733;47.994;8.820;2023-06-22T00:52:04;15.97;;;6.40;;
7383;SDS011;3733;47.994;8.820;2023-06-22T00:54:34;11.17;;;6.07;;
7383;SDS011;3733;47.994;8.820;2023-06-22T00:57:03;15.90;;;6.90;;
7383;SDS011;3733;47.994;8.820;2023-06-22T00:59:29;12.97;;;6.30;;
7383;SDS011;3733;47.994;8.820;2023-06-22T01:01:57;11.40;;;5.97;;
7383;SDS011;3733;47.994;8.820;2023-06-22T01:04:24;12.30;;;6.47;;
7383;SDS011;3733;47.994;8.820;2023-06-22T01:07:02;23.13;;;6.23;;
7383;SDS011;3733;47.994;8.820;2023-06-22T01:12:37;12.20;;;5.90;;
7383;SDS011;3733;47.994;8.820;2023-06-22T01:15:08;18.43;;;6.50;;
7383;SDS011;3733;47.994;8.820;2023-06-22T01:17:39;19.93;;;5.93;;
7383;SDS011;3733;47.994;8.820;2023-06-22T01:20:08;9.77;;;5.97;;
7383;SDS011;3733;47.994;8.820;2023-06-22T01:22:43;13.87;;;6.00;;
7383;SDS011;3733;47.994;8.820;2023-06-22T01:28:34;21.93;;;6.30;;
7383;SDS011;3733;47.994;8.820;2023-06-22T01:31:09;16.33;;;5.87;;
7383;SDS011;3733;47.994;8.820;2023-06-22T01:33:37;12.90;;;6.90;;
7383;SDS011;3733;47.994;8.820;2023-06-22T01:36:06;20.73;;;5.70;;
7383;SDS011;3733;47.994;8.820;2023-06-22T01:38:32;13.30;;;5.80;;
7383;SDS011;3733;47.994;8.820;2023-06-22T01:40:58;11.20;;;5.07;;
7383;SDS011;3733;47.994;8.820;2023-06-22T01:43:25;14.50;;;7.00;;
7383;SDS011;3733;47.994;8.820;2023-06-22T01:45:52;12.40;;;5.50;;
7383;SDS011;3733;47.994;8.820;2023-06-22T01:48:21;20.00;;;6.23;;
7383;SDS011;3733;47.994;8.820;2023-06-22T01:50:48;16.10;;;6.47;;
7383;SDS011;3733;47.994;8.820;2023-06-22T01:53:14;17.30;;;6.30;;
7383;SDS011;3733;47.994;8.820;2023-06-22T01:55:39;13.87;;;6.20;;
7383;SDS011;3733;47.994;8.820;2023-06-22T01:58:05;13.13;;;6.60;;
7383;SDS011;3733;47.994;8.820;2023-06-22T02:00:35;10.80;;;5.80;;
7383;SDS011;3733;47.994;8.820;2023-06-22T02:03:05;13.33;;;6.23;;
7383;SDS011;3733;47.994;8.820;2023-06-22T02:05:39;10.87;;;6.50;;
7383;SDS011;3733;47.994;8.820;2023-06-22T02:08:17;11.47;;;5.60;;
7383;SDS011;3733;47.994;8.820;2023-06-22T02:10:46;14.13;;;6.30;;
7383;SDS011;3733;47.994;8.820;2023-06-22T02:13:13;16.23;;;8.30;;
7383;SDS011;3733;47.994;8.820;2023-06-22T02:15:40;15.50;;;6.90;;
7383;SDS011;3733;47.994;8.820;2023-06-22T02:18:06;16.53;;;6.60;;
7383;SDS011;3733;47.994;8.820;2023-06-22T02:20:32;16.83;;;6.23;;
7383;SDS011;3733;47.994;8.820;2023-06-22T02:22:58;25.50;;;6.63;;
7383;SDS011;3733;47.994;8.820;2023-06-22T02:25:23;17.70;;;5.43;;
7383;SDS011;3733;47.994;8.820;2023-06-22T02:27:49;16.30;;;6.50;;
7383;SDS011;3733;47.994;8.820;2023-06-22T02:30:15;13.60;;;5.70;;
7383;SDS011;3733;47.994;8.820;2023-06-22T02:32:41;13.57;;;6.50;;
7383;SDS011;3733;47.994;8.820;2023-06-22T02:35:07;14.73;;;6.13;;
7383;SDS011;3733;47.994;8.820;2023-06-22T02:37:37;14.10;;;6.80;;
7383;SDS011;3733;47.994;8.820;2023-06-22T02:40:06;11.53;;;6.20;;
7383;SDS011;3733;47.994;8.820;2023-06-22T02:42:33;16.73;;;7.13;;
7383;SDS011;3733;47.994;8.820;2023-06-22T02:44:59;18.23;;;6.80;;
7383;SDS011;3733;47.994;8.820;2023-06-22T02:47:25;9.87;;;5.40;;
7383;SDS011;3733;47.994;8.820;2023-06-22T02:49:51;14.17;;;6.53;;
7383;SDS011;3733;47.994;8.820;2023-06-22T02:52:17;18.10;;;6.07;;
7383;SDS011;3733;47.994;8.820;2023-06-22T02:54:42;12.43;;;6.30;;
7383;SDS011;3733;47.994;8.820;2023-06-22T02:57:10;11.43;;;6.30;;
7383;SDS011;3733;47.994;8.820;2023-06-22T02:59:38;13.93;;;6.73;;
7383;SDS011;3733;47.994;8.820;2023-06-22T03:02:06;13.63;;;6.53;;
7383;SDS011;3733;47.994;8.820;2023-06-22T03:04:31;14.30;;;6.30;;
7383;SDS011;3733;47.994;8.820;2023-06-22T03:06:57;18.33;;;6.70;;
7383;SDS011;3733;47.994;8.820;2023-06-22T03:09:26;11.00;;;6.37;;
7383;SDS011;3733;47.994;8.820;2023-06-22T03:11:53;14.53;;;7.17;;
7383;SDS011;3733;47.994;8.820;2023-06-22T03:14:21;22.87;;;7.30;;
7383;SDS011;3733;47.994;8.820;2023-06-22T03:16:47;12.07;;;6.70;;
7383;SDS011;3733;47.994;8.820;2023-06-22T03:19:12;19.93;;;7.07;;
7383;SDS011;3733;47.994;8.820;2023-06-22T03:21:38;14.60;;;7.70;;
7383;SDS011;3733;47.994;8.820;2023-06-22T03:24:05;17.23;;;8.50;;
7383;SDS011;3733;47.994;8.820;2023-06-22T03:26:32;18.37;;;8.20;;
7383;SDS011;3733;47.994;8.820;2023-06-22T03:28:57;12.60;;;7.60;;
7383;SDS011;3733;47.994;8.820;2023-06-22T03:31:23;17.77;;;7.17;;
7383;SDS011;3733;47.994;8.820;2023-06-22T03:33:49;12.77;;;7.00;;
7383;SDS011;3733;47.994;8.820;2023-06-22T03:36:16;13.93;;;7.37;;
7383;SDS011;3733;47.994;8.820;2023-06-22T03:38:45;11.70;;;6.67;;
7383;SDS011;3733;47.994;8.820;2023-06-22T03:41:12;10.47;;;6.20;;
7383;SDS011;3733;47.994;8.820;2023-06-22T03:43:38;12.40;;;6.50;;
7383;SDS011;3733;47.994;8.820;2023-06-22T03:46:04;12.90;;;6.70;;
7383;SDS011;3733;47.994;8.820;2023-06-22T03:48:30;14.73;;;6.73;;
7383;SDS011;3733;47.994;8.820;2023-06-22T03:50:56;19.70;;;6.93;;
7383;SDS011;3733;47.994;8.820;2023-06-22T03:53:21;12.03;;;7.27;;
7383;SDS011;3733;47.994;8.820;2023-06-22T03:55:48;16.90;;;7.00;;
7383;SDS011;3733;47.994;8.820;2023-06-22T03:58:17;13.77;;;6.90;;
7383;SDS011;3733;47.994;8.820;2023-06-22T04:00:44;18.23;;;6.90;;
7383;SDS011;3733;47.994;8.820;2023-06-22T04:03:11;14.57;;;6.90;;
7383;SDS011;3733;47.994;8.820;2023-06-22T04:05:37;18.20;;;6.83;;
7383;SDS011;3733;47.994;8.820;2023-06-22T04:08:04;16.73;;;6.80;;
7383;SDS011;3733;47.994;8.820;2023-06-22T04:10:30;13.57;;;6.30;;
7383;SDS011;3733;47.994;8.820;2023-06-22T04:12:55;20.10;;;7.80;;
7383;SDS011;3733;47.994;8.820;2023-06-22T04:15:21;13.57;;;7.10;;
7383;SDS011;3733;47.994;8.820;2023-06-22T04:17:47;18.67;;;7.70;;
7383;SDS011;3733;47.994;8.820;2023-06-22T04:20:12;13.07;;;7.70;;
7383;SDS011;3733;47.994;8.820;2023-06-22T04:22:38;20.70;;;8.30;;
7383;SDS011;3733;47.994;8.820;2023-06-22T04:25:05;13.00;;;7.50;;
7383;SDS011;3733;47.994;8.820;2023-06-22T04:27:32;13.83;;;7.13;;
7383;SDS011;3733;47.994;8.820;2023-06-22T04:30:02;11.67;;;7.30;;
7383;SDS011;3733;47.994;8.820;2023-06-22T04:32:28;16.63;;;8.67;;
7383;SDS011;3733;47.994;8.820;2023-06-22T04:34:54;17.07;;;7.37;;
7383;SDS011;3733;47.994;8.820;2023-06-22T04:37:19;15.30;;;6.87;;
7383;SDS011;3733;47.994;8.820;2023-06-22T04:39:48;10.10;;;6.47;;
7383;SDS011;3733;47.994;8.820;2023-06-22T04:42:14;16.53;;;6.90;;
7383;SDS011;3733;47.994;8.820;2023-06-22T04:44:40;16.87;;;6.97;;
7383;SDS011;3733;47.994;8.820;2023-06-22T04:47:06;16.83;;;8.37;;
7383;SDS011;3733;47.994;8.820;2023-06-22T04:49:34;15.80;;;7.23;;
7383;SDS011;3733;47.994;8.820;2023-06-22T04:52:05;15.80;;;7.87;;
7383;SDS011;3733;47.994;8.820;2023-06-22T04:54:33;12.97;;;7.10;;
7383;SDS011;3733;47.994;8.820;2023-06-22T04:57:02;13.43;;;6.80;;
7383;SDS011;3733;47.994;8.820;2023-06-22T04:59:30;15.33;;;7.50;;
7383;SDS011;3733;47.994;8.820;2023-06-22T05:01:57;12.90;;;7.53;;
7383;SDS011;3733;47.994;8.820;2023-06-22T05:04:23;14.90;;;7.83;;
7383;SDS011;3733;47.994;8.820;2023-06-22T05:06:50;15.37;;;8.10;;
7383;SDS011;3733;47.994;8.820;2023-06-22T05:09:16;13.80;;;7.63;;
7383;SDS011;3733;47.994;8.820;2023-06-22T05:11:42;21.30;;;9.07;;
7383;SDS011;3733;47.994;8.820;2023-06-22T05:14:08;18.10;;;7.80;;
7383;SDS011;3733;47.994;8.820;2023-06-22T05:16:34;14.80;;;7.60;;
7383;SDS011;3733;47.994;8.820;2023-06-22T05:19:01;17.13;;;6.90;;
7383;SDS011;3733;47.994;8.820;2023-06-22T05:21:28;15.40;;;7.53;;
7383;SDS011;3733;47.994;8.820;2023-06-22T05:23:54;15.17;;;7.47;;
7383;SDS011;3733;47.994;8.820;2023-06-22T05:26:21;17.37;;;7.47;;
7383;SDS011;3733;47.994;8.820;2023-06-22T05:28:47;14.53;;;7.70;;
7383;SDS011;3733;47.994;8.820;2023-06-22T05:31:13;19.03;;;7.40;;
7383;SDS011;3733;47.994;8.820;2023-06-22T05:33:40;12.23;;;6.60;;
7383;SDS011;3733;47.994;8.820;2023-06-22T05:36:06;14.53;;;7.40;;
7383;SDS011;3733;47.994;8.820;2023-06-22T05:38:32;18.43;;;7.63;;
7383;SDS011;3733;47.994;8.820;2023-06-22T05:40:58;16.70;;;7.47;;
7383;SDS011;3733;47.994;8.820;2023-06-22T05:43:23;17.00;;;7.43;;
7383;SDS011;3733;47.994;8.820;2023-06-22T05:45:49;14.70;;;7.03;;
7383;SDS011;3733;47.994;8.820;2023-06-22T05:48:15;15.43;;;7.20;;
7383;SDS011;3733;47.994;8.820;2023-06-22T05:50:40;12.50;;;6.90;;
7383;SDS011;3733;47.994;8.820;2023-06-22T05:53:06;14.23;;;8.87;;
7383;SDS011;3733;47.994;8.820;2023-06-22T05:55:32;18.30;;;7.33;;
7383;SDS011;3733;47.994;8.820;2023-06-22T05:57:58;11.27;;;7.47;;
7383;SDS011;3733;47.994;8.820;2023-06-22T06:00:23;14.40;;;7.53;;
7383;SDS011;3733;47.994;8.820;2023-06-22T06:02:49;17.30;;;7.17;;
7383;SDS011;3733;47.994;8.820;2023-06-22T06:05:15;13.00;;;7.27;;
7383;SDS011;3733;47.994;8.820;2023-06-22T06:07:44;17.20;;;7.60;;
7383;SDS011;3733;47.994;8.820;2023-06-22T06:10:11;19.60;;;7.20;;
7383;SDS011;3733;47.994;8.820;2023-06-22T06:12:36;16.50;;;5.90;;
7383;SDS011;3733;47.994;8.820;2023-06-22T06:15:03;10.43;;;6.50;;
7383;SDS011;3733;47.994;8.820;2023-06-22T06:17:29;12.73;;;6.50;;
7383;SDS011;3733;47.994;8.820;2023-06-22T06:19:55;20.90;;;7.80;;
7383;SDS011;3733;47.994;8.820;2023-06-22T06:22:20;18.27;;;6.90;;
7383;SDS011;3733;47.994;8.820;2023-06-22T06:24:48;16.47;;;7.20;;
7383;SDS011;3733;47.994;8.820;2023-06-22T06:27:14;15.43;;;7.30;;
7383;SDS011;3733;47.994;8.820;2023-06-22T06:29:40;15.00;;;6.47;;
7383;SDS011;3733;47.994;8.820;2023-06-22T06:32:05;10.80;;;6.40;;
7383;SDS011;3733;47.994;8.820;2023-06-22T06:34:31;12.93;;;6.73;;
7383;SDS011;3733;47.994;8.820;2023-06-22T06:36:57;20.13;;;6.37;;
7383;SDS011;3733;47.994;8.820;2023-06-22T06:39:23;14.43;;;5.63;;
7383;SDS011;3733;47.994;8.820;2023-06-22T06:41:48;12.47;;;7.00;;
7383;SDS011;3733;47.994;8.820;2023-06-22T06:44:14;11.20;;;6.83;;
7383;SDS011;3733;47.994;8.820;2023-06-22T06:46:39;19.57;;;7.13;;
7383;SDS011;3733;47.994;8.820;2023-06-22T06:49:06;19.03;;;7.00;;
7383;SDS011;3733;47.994;8.820;2023-06-22T06:51:33;10.40;;;5.50;;
7383;SDS011;3733;47.994;8.820;2023-06-22T06:53:59;11.67;;;7.17;;
7383;SDS011;3733;47.994;8.820;2023-06-22T06:56:25;15.83;;;7.27;;
7383;SDS011;3733;47.994;8.820;2023-06-22T06:58:51;13.80;;;7.13;;
7383;SDS011;3733;47.994;8.820;2023-06-22T07:01:16;13.83;;;6.40;;
7383;SDS011;3733;47.994;8.820;2023-06-22T07:03:42;10.33;;;5.80;;
7383;SDS011;3733;47.994;8.820;2023-06-22T07:06:08;16.70;;;6.73;;
7383;SDS011;3733;47.994;8.820;2023-06-22T07:08:34;12.30;;;6.60;;
7383;SDS011;3733;47.994;8.820;2023-06-22T07:11:04;15.30;;;6.33;;
7383;SDS011;3733;47.994;8.820;2023-06-22T07:13:30;14.97;;;6.73;;
7383;SDS011;3733;47.994;8.820;2023-06-22T07:15:56;14.30;;;6.57;;
7383;SDS011;3733;47.994;8.820;2023-06-22T07:18:21;16.07;;;6.00;;
7383;SDS011;3733;47.994;8.820;2023-06-22T07:20:47;16.30;;;6.80;;
7383;SDS011;3733;47.994;8.820;2023-06-22T07:23:12;22.93;;;7.37;;
7383;SDS011;3733;47.994;8.820;2023-06-22T07:25:38;16.73;;;7.23;;
7383;SDS011;3733;47.994;8.820;2023-06-22T07:28:04;13.30;;;6.50;;
7383;SDS011;3733;47.994;8.820;2023-06-22T07:30:31;18.67;;;6.97;;
7383;SDS011;3733;47.994;8.820;2023-06-22T07:32:58;11.50;;;6.53;;
7383;SDS011;3733;47.994;8.820;2023-06-22T07:35:28;10.47;;;5.97;;
7383;SDS011;3733;47.994;8.820;2023-06-22T07:37:54;14.87;;;7.07;;
7383;SDS011;3733;47.994;8.820;2023-06-22T07:40:20;13.23;;;6.23;;
7383;SDS011;3733;47.994;8.820;2023-06-22T07:42:45;15.07;;;7.33;;
7383;SDS011;3733;47.994;8.820;2023-06-22T07:45:13;17.40;;;6.67;;
7383;SDS011;3733;47.994;8.820;2023-06-22T07:47:39;14.10;;;6.50;;
7383;SDS011;3733;47.994;8.820;2023-06-22T07:50:04;14.57;;;6.30;;
7383;SDS011;3733;47.994;8.820;2023-06-22T07:52:31;12.20;;;5.80;;
7383;SDS011;3733;47.994;8.820;2023-06-22T07:54:57;16.10;;;7.10;;
7383;SDS011;3733;47.994;8.820;2023-06-22T07:57:23;19.13;;;6.73;;
7383;SDS011;3733;47.994;8.820;2023-06-22T07:59:57;15.63;;;7.53;;
7383;SDS011;3733;47.994;8.820;2023-06-22T08:02:23;20.20;;;7.00;;
7383;SDS011;3733;47.994;8.820;2023-06-22T08:04:49;15.33;;;6.53;;
7383;SDS011;3733;47.994;8.820;2023-06-22T08:07:14;17.50;;;6.00;;
7383;SDS011;3733;47.994;8.820;2023-06-22T08:09:42;18.67;;;6.80;;
7383;SDS011;3733;47.994;8.820;2023-06-22T08:12:12;9.87;;;6.83;;
7383;SDS011;3733;47.994;8.820;2023-06-22T08:14:38;22.73;;;6.93;;
7383;SDS011;3733;47.994;8.820;2023-06-22T08:17:03;13.23;;;6.77;;
7383;SDS011;3733;47.994;8.820;2023-06-22T08:19:29;18.03;;;7.07;;
7383;SDS011;3733;47.994;8.820;2023-06-22T08:21:55;20.90;;;6.90;;
7383;SDS011;3733;47.994;8.820;2023-06-22T08:24:22;18.60;;;6.67;;
7383;SDS011;3733;47.994;8.820;2023-06-22T08:26:49;15.23;;;6.20;;
7383;SDS011;3733;47.994;8.820;2023-06-22T08:29:16;13.67;;;6.60;;
7383;SDS011;3733;47.994;8.820;2023-06-22T08:31:42;13.47;;;6.73;;
7383;SDS011;3733;47.994;8.820;2023-06-22T08:34:07;14.23;;;7.13;;
7383;SDS011;3733;47.994;8.820;2023-06-22T08:36:33;14.03;;;6.63;;
7383;SDS011;3733;47.994;8.820;2023-06-22T08:39:06;14.80;;;6.47;;
7383;SDS011;3733;47.994;8.820;2023-06-22T08:41:32;14.60;;;6.93;;
7383;SDS011;3733;47.994;8.820;2023-06-22T08:43:57;21.23;;;6.60;;
7383;SDS011;3733;47.994;8.820;2023-06-22T08:46:23;18.10;;;7.57;;
7383;SDS011;3733;47.994;8.820;2023-06-22T08:48:55;18.40;;;7.37;;
7383;SDS011;3733;47.994;8.820;2023-06-22T08:51:22;16.10;;;6.90;;
7383;SDS011;3733;47.994;8.820;2023-06-22T08:53:47;15.93;;;7.40;;
7383;SDS011;3733;47.994;8.820;2023-06-22T08:56:13;15.63;;;7.50;;
7383;SDS011;3733;47.994;8.820;2023-06-22T08:58:39;15.50;;;6.83;;
7383;SDS011;3733;47.994;8.820;2023-06-22T09:01:04;21.27;;;7.60;;
7383;SDS011;3733;47.994;8.820;2023-06-22T09:03:30;16.27;;;7.57;;
7383;SDS011;3733;47.994;8.820;2023-06-22T09:05:57;14.63;;;7.30;;
7383;SDS011;3733;47.994;8.820;2023-06-22T09:08:23;20.10;;;6.60;;
7383;SDS011;3733;47.994;8.820;2023-06-22T09:10:49;16.77;;;7.00;;
7383;SDS011;3733;47.994;8.820;2023-06-22T09:13:14;16.07;;;7.87;;
7383;SDS011;3733;47.994;8.820;2023-06-22T09:15:40;17.77;;;7.23;;
7383;SDS011;3733;47.994;8.820;2023-06-22T09:18:06;14.13;;;6.90;;
7383;SDS011;3733;47.994;8.820;2023-06-22T09:20:31;15.90;;;6.80;;
7383;SDS011;3733;47.994;8.820;2023-06-22T09:22:57;20.17;;;7.60;;
7383;SDS011;3733;47.994;8.820;2023-06-22T09:25:23;18.47;;;7.57;;
7383;SDS011;3733;47.994;8.820;2023-06-22T09:27:48;20.70;;;6.63;;
7383;SDS011;3733;47.994;8.820;2023-06-22T09:30:14;18.83;;;7.30;;
7383;SDS011;3733;47.994;8.820;2023-06-22T09:32:40;19.13;;;7.63;;
7383;SDS011;3733;47.994;8.820;2023-06-22T09:35:05;12.83;;;6.07;;
7383;SDS011;3733;47.994;8.820;2023-06-22T09:37:32;14.37;;;6.50;;
7383;SDS011;3733;47.994;8.820;2023-06-22T09:39:57;14.40;;;6.20;;
7383;SDS011;3733;47.994;8.820;2023-06-22T09:42:23;22.77;;;6.70;;
7383;SDS011;3733;47.994;8.820;2023-06-22T09:44:48;14.87;;;6.90;;
7383;SDS011;3733;47.994;8.820;2023-06-22T09:47:14;12.47;;;6.60;;
7383;SDS011;3733;47.994;8.820;2023-06-22T09:49:40;15.83;;;6.60;;
7383;SDS011;3733;47.994;8.820;2023-06-22T09:52:05;14.70;;;6.00;;
7383;SDS011;3733;47.994;8.820;2023-06-22T09:54:31;16.40;;;6.80;;
7383;SDS011;3733;47.994;8.820;2023-06-22T09:56:57;17.13;;;6.77;;
7383;SDS011;3733;47.994;8.820;2023-06-22T09:59:22;19.60;;;6.20;;
7383;SDS011;3733;47.994;8.820;2023-06-22T10:01:48;15.50;;;7.27;;
7383;SDS011;3733;47.994;8.820;2023-06-22T10:04:13;9.57;;;6.37;;
7383;SDS011;3733;47.994;8.820;2023-06-22T10:06:39;19.17;;;6.30;;
7383;SDS011;3733;47.994;8.820;2023-06-22T10:09:06;14.10;;;6.10;;
7383;SDS011;3733;47.994;8.820;2023-06-22T10:11:32;17.07;;;7.60;;
7383;SDS011;3733;47.994;8.820;2023-06-22T10:14:00;16.50;;;7.13;;
7383;SDS011;3733;47.994;8.820;2023-06-22T10:16:32;16.17;;;7.23;;
7383;SDS011;3733;47.994;8.820;2023-06-22T10:18:58;11.33;;;6.80;;
7383;SDS011;3733;47.994;8.820;2023-06-22T10:21:23;18.47;;;6.90;;
7383;SDS011;3733;47.994;8.820;2023-06-22T10:23:51;17.37;;;7.23;;
7383;SDS011;3733;47.994;8.820;2023-06-22T10:26:17;14.00;;;6.63;;
7383;SDS011;3733;47.994;8.820;2023-06-22T10:28:42;18.30;;;6.60;;
7383;SDS011;3733;47.994;8.820;2023-06-22T10:31:08;14.47;;;7.10;;
7383;SDS011;3733;47.994;8.820;2023-06-22T10:33:33;17.13;;;7.17;;
7383;SDS011;3733;47.994;8.820;2023-06-22T10:35:59;17.80;;;7.17;;
7383;SDS011;3733;47.994;8.820;2023-06-22T10:38:24;17.63;;;7.03;;
7383;SDS011;3733;47.994;8.820;2023-06-22T10:40:50;14.10;;;6.90;;
7383;SDS011;3733;47.994;8.820;2023-06-22T10:43:16;13.57;;;7.23;;
7383;SDS011;3733;47.994;8.820;2023-06-22T10:45:41;22.40;;;9.00;;
7383;SDS011;3733;47.994;8.820;2023-06-22T10:48:07;18.90;;;7.50;;
7383;SDS011;3733;47.994;8.820;2023-06-22T10:50:33;30.23;;;16.67;;
7383;SDS011;3733;47.994;8.820;2023-06-22T10:52:58;13.63;;;7.53;;
7383;SDS011;3733;47.994;8.820;2023-06-22T10:55:24;15.80;;;7.23;;
7383;SDS011;3733;47.994;8.820;2023-06-22T10:57:49;15.17;;;7.00;;
7383;SDS011;3733;47.994;8.820;2023-06-22T11:00:15;11.33;;;6.83;;
7383;SDS011;3733;47.994;8.820;2023-06-22T11:02:41;25.00;;;7.03;;
7383;SDS011;3733;47.994;8.820;2023-06-22T11:05:07;18.17;;;7.87;;
7383;SDS011;3733;47.994;8.820;2023-06-22T11:07:33;13.27;;;6.83;;
7383;SDS011;3733;47.994;8.820;2023-06-22T11:09:58;12.53;;;6.80;;
7383;SDS011;3733;47.994;8.820;2023-06-22T11:12:24;22.20;;;7.50;;
7383;SDS011;3733;47.994;8.820;2023-06-22T11:14:50;16.03;;;7.33;;
7383;SDS011;3733;47.994;8.820;2023-06-22T11:17:16;14.63;;;6.97;;
7383;SDS011;3733;47.994;8.820;2023-06-22T11:19:43;13.57;;;7.97;;
7383;SDS011;3733;47.994;8.820;2023-06-22T11:22:09;11.97;;;7.37;;
7383;SDS011;3733;47.994;8.820;2023-06-22T11:24:35;14.53;;;7.07;;
7383;SDS011;3733;47.994;8.820;2023-06-22T11:27:01;16.77;;;7.50;;
7383;SDS011;3733;47.994;8.820;2023-06-22T11:29:26;19.03;;;8.33;;
7383;SDS011;3733;47.994;8.820;2023-06-22T11:31:52;11.60;;;7.40;;
7383;SDS011;3733;47.994;8.820;2023-06-22T11:34:17;15.70;;;8.20;;
7383;SDS011;3733;47.994;8.820;2023-06-22T11:36:44;15.00;;;7.47;;
7383;SDS011;3733;47.994;8.820;2023-06-22T11:39:10;10.93;;;6.83;;
7383;SDS011;3733;47.994;8.820;2023-06-22T11:41:36;16.70;;;7.40;;
7383;SDS011;3733;47.994;8.820;2023-06-22T11:44:03;16.17;;;7.80;;
7383;SDS011;3733;47.994;8.820;2023-06-22T11:46:29;15.33;;;7.93;;
7383;SDS011;3733;47.994;8.820;2023-06-22T11:48:55;13.60;;;7.17;;
7383;SDS011;3733;47.994;8.820;2023-06-22T11:51:20;17.33;;;8.10;;
7383;SDS011;3733;47.994;8.820;2023-06-22T11:53:46;21.53;;;8.20;;
7383;SDS011;3733;47.994;8.820;2023-06-22T11:56:12;23.93;;;8.00;;
7383;SDS011;3733;47.994;8.820;2023-06-22T11:58:37;9.90;;;7.33;;
7383;SDS011;3733;47.994;8.820;2023-06-22T12:01:03;19.00;;;8.10;;
7383;SDS011;3733;47.994;8.820;2023-06-22T12:03:28;15.87;;;8.20;;
7383;SDS011;3733;47.994;8.820;2023-06-22T12:05:55;17.27;;;8.53;;
7383;SDS011;3733;47.994;8.820;2023-06-22T12:08:20;20.30;;;7.20;;
7383;SDS011;3733;47.994;8.820;2023-06-22T12:10:46;21.53;;;7.83;;
7383;SDS011;3733;47.994;8.820;2023-06-22T12:13:12;28.97;;;8.77;;
7383;SDS011;3733;47.994;8.820;2023-06-22T12:15:38;19.90;;;8.60;;
7383;SDS011;3733;47.994;8.820;2023-06-22T12:18:03;16.83;;;8.57;;
7383;SDS011;3733;47.994;8.820;2023-06-22T12:20:29;19.60;;;8.97;;
7383;SDS011;3733;47.994;8.820;2023-06-22T12:22:55;20.60;;;9.07;;
7383;SDS011;3733;47.994;8.820;2023-06-22T12:25:23;19.73;;;8.00;;
7383;SDS011;3733;47.994;8.820;2023-06-22T12:27:48;20.20;;;8.87;;
7383;SDS011;3733;47.994;8.820;2023-06-22T12:30:15;14.73;;;7.77;;
7383;SDS011;3733;47.994;8.820;2023-06-22T12:32:41;22.33;;;8.00;;
7383;SDS011;3733;47.994;8.820;2023-06-22T12:35:07;14.90;;;8.27;;
7383;SDS011;3733;47.994;8.820;2023-06-22T12:37:38;20.43;;;7.20;;
7383;SDS011;3733;47.994;8.820;2023-06-22T12:40:05;14.73;;;8.37;;
7383;SDS011;3733;47.994;8.820;2023-06-22T12:42:31;20.90;;;8.17;;
7383;SDS011;3733;47.994;8.820;2023-06-22T12:44:57;16.10;;;7.43;;
7383;SDS011;3733;47.994;8.820;2023-06-22T12:47:22;20.63;;;7.23;;
7383;SDS011;3733;47.994;8.820;2023-06-22T12:49:48;12.40;;;7.17;;
7383;SDS011;3733;47.994;8.820;2023-06-22T12:52:13;15.83;;;7.97;;
7383;SDS011;3733;47.994;8.820;2023-06-22T12:54:39;14.93;;;7.13;;
7383;SDS011;3733;47.994;8.820;2023-06-22T12:57:05;15.77;;;7.30;;
7383;SDS011;3733;47.994;8.820;2023-06-22T12:59:31;18.43;;;7.50;;
7383;SDS011;3733;47.994;8.820;2023-06-22T13:01:56;16.70;;;7.57;;
7383;SDS011;3733;47.994;8.820;2023-06-22T13:04:22;17.70;;;7.03;;
7383;SDS011;3733;47.994;8.820;2023-06-22T13:06:47;21.70;;;7.90;;
7383;SDS011;3733;47.994;8.820;2023-06-22T13:09:13;16.80;;;6.70;;
7383;SDS011;3733;47.994;8.820;2023-06-22T13:11:40;13.33;;;6.83;;
7383;SDS011;3733;47.994;8.820;2023-06-22T13:14:06;10.57;;;7.10;;
7383;SDS011;3733;47.994;8.820;2023-06-22T13:16:32;18.90;;;6.20;;
7383;SDS011;3733;47.994;8.820;2023-06-22T13:18:58;15.90;;;6.47;;
7383;SDS011;3733;47.994;8.820;2023-06-22T13:21:23;19.90;;;6.20;;
7383;SDS011;3733;47.994;8.820;2023-06-22T13:23:49;18.50;;;5.90;;
7383;SDS011;3733;47.994;8.820;2023-06-22T13:26:15;14.83;;;4.77;;
7383;SDS011;3733;47.994;8.820;2023-06-22T13:28:40;12.17;;;5.10;;
7383;SDS011;3733;47.994;8.820;2023-06-22T13:31:06;18.20;;;5.77;;
7383;SDS011;3733;47.994;8.820;2023-06-22T13:33:31;16.37;;;5.23;;
7383;SDS011;3733;47.994;8.820;2023-06-22T13:35:57;11.27;;;4.10;;
7383;SDS011;3733;47.994;8.820;2023-06-22T13:38:22;11.50;;;4.50;;
7383;SDS011;3733;47.994;8.820;2023-06-22T13:40:48;15.47;;;4.53;;
7383;SDS011;3733;47.994;8.820;2023-06-22T13:43:15;12.73;;;4.50;;
7383;SDS011;3733;47.994;8.820;2023-06-22T13:45:41;11.43;;;4.40;;
7383;SDS011;3733;47.994;8.820;2023-06-22T13:48:07;13.87;;;4.83;;
7383;SDS011;3733;47.994;8.820;2023-06-22T13:50:33;12.40;;;3.87;;
7383;SDS011;3733;47.994;8.820;2023-06-22T13:52:58;16.73;;;4.97;;
7383;SDS011;3733;47.994;8.820;2023-06-22T13:55:24;13.88;;;4.90;;
7383;SDS011;3733;47.994;8.820;2023-06-22T13:57:51;11.43;;;4.57;;
7383;SDS011;3733;47.994;8.820;2023-06-22T14:00:17;15.13;;;4.73;;
7383;SDS011;3733;47.994;8.820;2023-06-22T14:02:43;23.13;;;4.40;;
7383;SDS011;3733;47.994;8.820;2023-06-22T14:05:08;16.50;;;4.97;;
7383;SDS011;3733;47.994;8.820;2023-06-22T14:07:35;19.05;;;4.75;;
7383;SDS011;3733;47.994;8.820;2023-06-22T14:10:02;14.02;;;3.97;;
7383;SDS011;3733;47.994;8.820;2023-06-22T14:12:28;12.43;;;4.53;;
7383;SDS011;3733;47.994;8.820;2023-06-22T14:14:53;12.05;;;4.40;;
7383;SDS011;3733;47.994;8.820;2023-06-22T14:17:19;13.43;;;4.37;;
7383;SDS011;3733;47.994;8.820;2023-06-22T14:19:50;13.50;;;4.57;;
7383;SDS011;3733;47.994;8.820;2023-06-22T14:22:20;15.50;;;4.10;;
7383;SDS011;3733;47.994;8.820;2023-06-22T14:24:47;14.05;;;4.10;;
7383;SDS011;3733;47.994;8.820;2023-06-22T14:27:13;25.75;;;4.65;;
7383;SDS011;3733;47.994;8.820;2023-06-22T14:29:39;18.33;;;4.30;;
7383;SDS011;3733;47.994;8.820;2023-06-22T14:32:05;10.03;;;3.50;;
7383;SDS011;3733;47.994;8.820;2023-06-22T14:34:31;13.85;;;4.57;;
7383;SDS011;3733;47.994;8.820;2023-06-22T14:36:57;19.42;;;4.85;;
7383;SDS011;3733;47.994;8.820;2023-06-22T14:39:23;12.57;;;4.32;;
7383;SDS011;3733;47.994;8.820;2023-06-22T14:41:49;13.90;;;4.40;;
7383;SDS011;3733;47.994;8.820;2023-06-22T14:44:15;13.80;;;3.80;;
7383;SDS011;3733;47.994;8.820;2023-06-22T14:46:40;19.27;;;4.57;;
7383;SDS011;3733;47.994;8.820;2023-06-22T14:49:06;11.88;;;3.70;;
7383;SDS011;3733;47.994;8.820;2023-06-22T14:51:31;11.57;;;4.30;;
7383;SDS011;3733;47.994;8.820;2023-06-22T14:53:57;12.03;;;3.90;;
7383;SDS011;3733;47.994;8.820;2023-06-22T14:56:22;15.47;;;4.37;;
7383;SDS011;3733;47.994;8.820;2023-06-22T14:58:48;16.10;;;4.90;;
7383;SDS011;3733;47.994;8.820;2023-06-22T15:01:16;15.60;;;4.13;;
7383;SDS011;3733;47.994;8.820;2023-06-22T15:03:42;11.30;;;4.30;;